createdAt,value
2019-03-09T00:01:21.542Z,57.47
2019-03-09T00:04:08.972Z,57.75
2019-03-09T00:06:56.081Z,56.97
2019-03-09T00:09:43.623Z,56.60
2019-03-09T00:12:30.826Z,57.30
2019-03-09T00:15:18.622Z,56.43
2019-03-09T00:18:06.187Z,57.06
2019-03-09T00:20:53.815Z,57.68
2019-03-09T00:23:59.057Z,57.15
2019-03-09T00:27:00.473Z,57.36
2019-03-09T00:29:52.542Z,57.58
2019-03-09T00:32:39.662Z,56.48
2019-03-09T00:35:27.188Z,56.35
2019-03-09T00:38:14.816Z,57.30
2019-03-09T00:41:02.648Z,56.61
2019-03-09T00:43:50.081Z,57.90
2019-03-09T00:46:37.600Z,57.06
2019-03-09T00:49:25.128Z,57.40
2019-03-09T00:52:12.347Z,57.00
2019-03-09T00:54:59.778Z,56.98
2019-03-09T00:57:47.296Z,57.09
2019-03-09T01:00:34.722Z,56.73
2019-03-09T01:03:22.473Z,56.13
2019-03-09T01:06:10.083Z,57.19
2019-03-09T01:08:57.917Z,56.50
2019-03-09T01:11:45.140Z,56.16
2019-03-09T01:14:33.175Z,56.47
2019-03-09T01:17:20.292Z,56.65
2019-03-09T01:20:14.148Z,56.95
2019-03-09T01:23:01.895Z,56.25
2019-03-09T01:25:49.322Z,56.31
2019-03-09T01:28:37.053Z,56.79
2019-03-09T01:31:24.682Z,56.32
2019-03-09T01:34:12.329Z,55.71
2019-03-09T01:37:00.040Z,55.84
2019-03-09T01:39:47.569Z,56.59
2019-03-09T01:42:34.997Z,56.47
2019-03-09T01:45:22.620Z,55.53
2019-03-09T01:48:10.352Z,55.60
2019-03-09T01:50:57.981Z,55.85
2019-03-09T01:53:45.609Z,56.07
2019-03-09T01:56:32.932Z,56.56
2019-03-09T01:59:20.867Z,57.37
2019-03-09T02:02:07.984Z,56.98
2019-03-09T02:04:55.835Z,56.71
2019-03-09T02:07:43.584Z,57.37
2019-03-09T02:10:31.385Z,57.24
2019-03-09T02:13:18.786Z,58.85
2019-03-09T02:16:06.234Z,58.60
2019-03-09T02:18:53.452Z,58.46
2019-03-09T02:21:40.886Z,59.17
2019-03-09T02:24:28.607Z,59.23
2019-03-09T02:27:16.238Z,58.98
2019-03-09T02:30:04.667Z,58.55
2019-03-09T02:32:52.323Z,58.61
2019-03-09T02:35:39.536Z,58.16
2019-03-09T02:38:31.465Z,59.02
2019-03-09T02:41:19.095Z,58.33
2019-03-09T02:44:06.621Z,58.24
2019-03-09T02:46:54.045Z,58.99
2019-03-09T02:49:41.262Z,58.87
2019-03-09T02:52:28.912Z,58.29
2019-03-09T02:55:16.626Z,59.21
2019-03-09T02:58:04.655Z,58.15
2019-03-09T03:01:06.114Z,57.76
2019-03-09T03:03:53.229Z,59.02
2019-03-09T03:06:41.068Z,59.02
2019-03-09T03:09:28.389Z,59.16
2019-03-09T03:12:15.949Z,58.47
2019-03-09T03:15:04.159Z,58.30
2019-03-09T03:17:51.377Z,57.74
2019-03-09T03:20:39.139Z,56.70
2019-03-09T03:23:26.535Z,56.24
2019-03-09T03:26:14.057Z,57.33
2019-03-09T03:29:01.583Z,56.95
2019-03-09T03:31:48.810Z,58.38
2019-03-09T03:34:36.243Z,58.49
2019-03-09T03:37:24.084Z,58.67
2019-03-09T03:40:12.741Z,58.98
2019-03-09T03:43:00.342Z,60.06
2019-03-09T03:45:48.078Z,59.09
2019-03-09T03:48:35.808Z,58.07
2019-03-09T03:51:23.335Z,58.20
2019-03-09T03:54:11.062Z,58.36
2019-03-09T03:56:58.795Z,59.64
2019-03-09T03:59:46.848Z,60.62
2019-03-09T04:02:34.567Z,60.33
2019-03-09T04:05:21.886Z,61.52
2019-03-09T04:08:09.719Z,62.24
2019-03-09T04:10:57.661Z,62.08
2019-03-09T04:13:45.503Z,63.64
2019-03-09T04:16:32.918Z,63.57
2019-03-09T04:19:20.568Z,65.19
2019-03-09T04:22:07.865Z,65.92
2019-03-09T04:24:55.190Z,65.26
2019-03-09T04:27:42.815Z,65.37
2019-03-09T04:30:30.546Z,65.94
2019-03-09T04:33:18.072Z,67.60
2019-03-09T04:36:05.516Z,67.07
2019-03-09T04:38:53.130Z,67.81
2019-03-09T04:41:40.653Z,67.65
2019-03-09T04:44:28.491Z,68.31
2019-03-09T04:47:16.014Z,69.37
2019-03-09T04:50:05.076Z,69.17
2019-03-09T04:53:00.705Z,69.76
2019-03-09T04:55:48.321Z,69.77
2019-03-09T04:58:35.839Z,70.03
2019-03-09T05:01:23.271Z,68.58
2019-03-09T05:04:20.321Z,70.41
2019-03-09T05:07:07.951Z,71.18
2019-03-09T05:09:58.554Z,71.06
2019-03-09T05:12:49.159Z,70.45
2019-03-09T05:15:36.581Z,70.79
2019-03-09T05:18:24.114Z,71.63
2019-03-09T05:21:11.835Z,71.29
2019-03-09T05:23:59.458Z,70.97
2019-03-09T05:26:47.294Z,70.96
2019-03-09T05:29:34.305Z,71.61
2019-03-09T05:32:22.042Z,72.00
2019-03-09T05:35:09.565Z,71.60
2019-03-09T05:37:56.787Z,72.12
2019-03-09T05:40:44.515Z,70.59
2019-03-09T05:43:32.455Z,70.80
2019-03-09T05:46:20.056Z,72.06
2019-03-09T05:49:07.198Z,72.59
2019-03-09T05:52:20.945Z,72.27
2019-03-09T05:55:11.889Z,72.29
2019-03-09T05:57:59.575Z,73.33
2019-03-09T06:00:46.936Z,72.98
2019-03-09T06:03:34.527Z,73.01
2019-03-09T06:06:22.053Z,71.87
2019-03-09T06:09:09.784Z,72.76
2019-03-09T06:11:57.049Z,73.62
2019-03-09T06:14:44.632Z,73.30
2019-03-09T06:17:32.162Z,72.29
2019-03-09T06:20:19.891Z,71.89
2019-03-09T06:23:07.214Z,71.70
2019-03-09T06:25:54.741Z,72.54
2019-03-09T06:28:43.086Z,72.62
2019-03-09T06:31:30.611Z,73.15
2019-03-09T06:34:18.250Z,72.94
2019-03-09T06:37:07.624Z,73.06
2019-03-09T06:39:57.261Z,73.24
2019-03-09T06:42:47.093Z,73.68
2019-03-09T06:45:34.489Z,74.15
2019-03-09T06:48:21.967Z,73.32
2019-03-09T06:51:09.337Z,73.00
2019-03-09T06:53:56.974Z,74.38
2019-03-09T06:56:44.393Z,74.18
2019-03-09T06:59:32.124Z,75.51
2019-03-09T07:02:20.161Z,73.36
2019-03-09T07:05:08.164Z,71.22
2019-03-09T07:07:55.318Z,72.31
2019-03-09T07:10:42.742Z,72.14
2019-03-09T07:13:29.923Z,70.87
2019-03-09T07:16:17.503Z,72.46
2019-03-09T07:19:05.121Z,71.63
2019-03-09T07:21:52.854Z,71.17
2019-03-09T07:24:40.489Z,72.07
2019-03-09T07:27:28.621Z,70.88
2019-03-09T07:30:17.393Z,71.61
2019-03-09T07:33:05.622Z,72.36
2019-03-09T07:35:53.041Z,73.45
2019-03-09T07:38:40.877Z,75.00
2019-03-09T07:41:28.400Z,75.08
2019-03-09T07:44:16.137Z,74.68
2019-03-09T07:47:03.674Z,73.43
2019-03-09T07:49:51.188Z,72.16
2019-03-09T07:52:39.156Z,73.11
2019-03-09T07:55:26.962Z,72.60
2019-03-09T07:58:14.484Z,71.56
2019-03-09T08:01:02.123Z,71.94
2019-03-09T08:03:49.844Z,71.09
2019-03-09T08:06:37.573Z,71.59
2019-03-09T08:09:25.509Z,70.61
2019-03-09T08:12:13.037Z,69.54
2019-03-09T08:15:00.564Z,68.35
2019-03-09T08:17:48.262Z,68.83
2019-03-09T08:20:35.518Z,68.17
2019-03-09T08:23:23.248Z,68.02
2019-03-09T08:26:10.783Z,69.92
2019-03-09T08:28:59.322Z,69.93
2019-03-09T08:31:46.802Z,71.39
2019-03-09T08:34:34.296Z,71.45
2019-03-09T08:37:21.705Z,69.97
2019-03-09T08:40:12.509Z,69.95
2019-03-09T08:42:59.733Z,69.49
2019-03-09T08:45:47.664Z,67.80
2019-03-09T08:48:35.186Z,66.61
2019-03-09T08:51:22.853Z,67.47
2019-03-09T08:54:10.464Z,67.50
2019-03-09T08:56:57.966Z,68.35
2019-03-09T08:59:45.289Z,67.46
2019-03-09T09:02:32.204Z,69.68
2019-03-09T09:05:19.933Z,68.07
2019-03-09T09:08:07.766Z,67.60
2019-03-09T09:10:55.703Z,67.50
2019-03-09T09:13:43.128Z,67.05
2019-03-09T09:16:30.661Z,66.89
2019-03-09T09:19:18.076Z,66.05
2019-03-09T09:22:06.820Z,67.03
2019-03-09T09:24:54.572Z,66.78
2019-03-09T09:27:42.400Z,67.55
2019-03-09T09:30:31.466Z,66.41
2019-03-09T09:33:18.481Z,66.69
2019-03-09T09:36:06.012Z,65.60
2019-03-09T09:38:53.629Z,64.06
2019-03-09T09:41:41.374Z,63.42
2019-03-09T09:44:28.785Z,62.35
2019-03-09T09:47:16.315Z,61.83
2019-03-09T09:50:04.455Z,60.81
2019-03-09T09:52:51.776Z,60.89
2019-03-09T09:55:39.300Z,61.85
2019-03-09T09:58:26.734Z,62.04
2019-03-09T10:01:14.662Z,61.73
2019-03-09T10:04:01.679Z,62.61
2019-03-09T10:06:49.734Z,61.08
2019-03-09T10:09:36.934Z,63.34
2019-03-09T10:12:24.578Z,62.26
2019-03-09T10:15:15.181Z,60.77
2019-03-09T10:18:02.791Z,61.15
2019-03-09T10:20:50.421Z,60.89
2019-03-09T10:23:38.153Z,61.36
2019-03-09T10:26:26.717Z,63.01
2019-03-09T10:29:14.332Z,63.03
2019-03-09T10:32:01.420Z,62.97
2019-03-09T10:34:49.293Z,61.76
2019-03-09T10:37:36.951Z,61.77
2019-03-09T10:40:24.764Z,63.20
2019-03-09T10:43:12.234Z,62.06
2019-03-09T10:45:59.801Z,61.73
2019-03-09T10:48:48.356Z,60.76
2019-03-09T10:51:36.182Z,59.83
2019-03-09T10:54:23.404Z,59.05
2019-03-09T10:57:11.029Z,59.83
2019-03-09T10:59:58.457Z,60.48
2019-03-09T11:02:46.186Z,59.64
2019-03-09T11:05:33.712Z,60.09
2019-03-09T11:08:21.340Z,60.10
2019-03-09T11:11:08.662Z,60.19
2019-03-09T11:13:56.496Z,59.43
2019-03-09T11:16:44.500Z,59.77
2019-03-09T11:19:31.994Z,59.82
2019-03-09T11:22:21.065Z,59.74
2019-03-09T11:25:10.112Z,59.62
2019-03-09T11:28:06.220Z,59.70
2019-03-09T11:30:53.943Z,59.48
2019-03-09T11:33:41.571Z,59.91
2019-03-09T11:36:29.305Z,59.41
2019-03-09T11:39:17.240Z,58.61
2019-03-09T11:42:05.074Z,58.01
2019-03-09T11:44:53.012Z,57.37
2019-03-09T11:47:40.439Z,58.46
2019-03-09T11:50:28.066Z,59.58
2019-03-09T11:53:15.488Z,59.06
2019-03-09T11:56:03.430Z,57.49
2019-03-09T11:58:51.195Z,58.18
2019-03-09T12:01:39.099Z,57.49
2019-03-09T12:04:26.722Z,57.68
2019-03-09T12:07:14.454Z,58.24
2019-03-09T12:10:01.679Z,58.34
2019-03-09T12:12:48.688Z,57.71
2019-03-09T12:15:36.628Z,58.24
2019-03-09T12:18:24.464Z,59.28
2019-03-09T12:21:12.192Z,59.19
2019-03-09T12:24:00.026Z,59.01
2019-03-09T12:26:47.655Z,58.85
2019-03-09T12:29:34.995Z,58.22
2019-03-09T12:32:22.805Z,57.72
2019-03-09T12:35:10.666Z,57.60
2019-03-09T12:37:58.269Z,57.08
2019-03-09T12:40:45.386Z,57.45
2019-03-09T12:43:32.609Z,59.10
2019-03-09T12:46:19.958Z,58.21
2019-03-09T12:49:07.352Z,56.85
2019-03-09T12:51:54.883Z,56.68
2019-03-09T12:54:42.620Z,56.29
2019-03-09T12:57:31.011Z,55.97
2019-03-09T13:00:22.538Z,55.52
2019-03-09T13:03:09.491Z,54.24
2019-03-09T13:05:57.230Z,54.67
2019-03-09T13:08:44.968Z,54.60
2019-03-09T13:11:32.587Z,55.70
2019-03-09T13:14:19.805Z,54.41
2019-03-09T13:17:07.327Z,54.60
2019-03-09T13:19:55.368Z,54.64
2019-03-09T13:22:42.894Z,53.89
2019-03-09T13:25:30.599Z,55.04
2019-03-09T13:28:18.575Z,53.81
2019-03-09T13:31:05.782Z,55.11
2019-03-09T13:33:54.023Z,54.77
2019-03-09T13:36:41.654Z,54.84
2019-03-09T13:39:29.282Z,53.36
2019-03-09T13:42:17.013Z,54.87
2019-03-09T13:45:04.572Z,54.46
2019-03-09T13:47:52.286Z,54.70
2019-03-09T13:50:40.110Z,54.90
2019-03-09T13:53:27.635Z,55.56
2019-03-09T13:56:15.183Z,55.58
2019-03-09T13:59:02.789Z,55.76
2019-03-09T14:01:50.828Z,56.12
2019-03-09T14:04:39.288Z,54.79
2019-03-09T14:07:26.902Z,56.01
2019-03-09T14:10:16.290Z,55.74
2019-03-09T14:13:04.112Z,55.96
2019-03-09T14:15:51.634Z,56.50
2019-03-09T14:18:39.108Z,56.25
2019-03-09T14:21:26.796Z,56.41
2019-03-09T14:24:14.421Z,56.65
2019-03-09T14:27:02.148Z,56.80
2019-03-09T14:29:49.675Z,55.26
2019-03-09T14:32:37.306Z,55.92
2019-03-09T14:35:25.036Z,55.45
2019-03-09T14:38:12.527Z,55.12
2019-03-09T14:40:59.893Z,56.39
2019-03-09T14:43:47.616Z,56.57
2019-03-09T14:46:34.629Z,56.43
2019-03-09T14:49:22.565Z,56.23
2019-03-09T14:52:10.299Z,57.02
2019-03-09T14:54:58.180Z,59.45
2019-03-09T14:57:45.453Z,60.66
2019-03-09T15:00:33.084Z,60.85
2019-03-09T15:03:20.407Z,61.19
2019-03-09T15:06:08.035Z,63.14
2019-03-09T15:08:55.583Z,63.56
2019-03-09T15:11:44.315Z,61.29
2019-03-09T15:14:32.051Z,61.45
2019-03-09T15:17:20.094Z,63.07
2019-03-09T15:20:10.275Z,63.78
2019-03-09T15:22:58.005Z,63.95
2019-03-09T15:25:45.430Z,62.72
2019-03-09T15:28:33.366Z,61.14
2019-03-09T15:31:20.484Z,60.52
2019-03-09T15:34:07.703Z,61.69
2019-03-09T15:36:57.058Z,61.10
2019-03-09T15:39:44.606Z,60.37
2019-03-09T15:42:32.023Z,60.32
2019-03-09T15:45:20.482Z,60.39
2019-03-09T15:48:07.895Z,61.48
2019-03-09T15:50:55.627Z,62.37
2019-03-09T15:53:43.154Z,63.91
2019-03-09T15:56:30.684Z,64.27
2019-03-09T15:59:17.900Z,64.39
2019-03-09T16:02:09.426Z,65.71
2019-03-09T16:04:57.052Z,66.22
2019-03-09T16:07:44.581Z,65.16
2019-03-09T16:10:32.410Z,65.95
2019-03-09T16:13:21.269Z,66.80
2019-03-09T16:16:08.690Z,66.42
2019-03-09T16:18:56.423Z,67.88
2019-03-09T16:21:43.746Z,67.47
2019-03-09T16:24:31.373Z,66.33
2019-03-09T16:27:18.797Z,67.06
2019-03-09T16:30:12.368Z,67.23
2019-03-09T16:32:59.899Z,66.78
2019-03-09T16:35:47.403Z,67.46
2019-03-09T16:38:35.080Z,67.88
2019-03-09T16:41:22.630Z,67.91
2019-03-09T16:44:11.127Z,67.19
2019-03-09T16:46:58.480Z,69.56
2019-03-09T16:49:45.972Z,70.52
2019-03-09T16:52:33.736Z,69.80
2019-03-09T16:55:21.651Z,67.93
2019-03-09T16:58:09.272Z,67.69
2019-03-09T17:00:56.718Z,66.46
2019-03-09T17:03:44.529Z,65.75
2019-03-09T17:06:32.374Z,64.96
2019-03-09T17:09:20.404Z,65.18
2019-03-09T17:12:07.932Z,65.21
2019-03-09T17:14:55.572Z,65.26
2019-03-09T17:17:42.879Z,64.87
2019-03-09T17:20:30.813Z,64.85
2019-03-09T17:23:18.443Z,64.45
2019-03-09T17:26:05.867Z,64.20
2019-03-09T17:28:53.601Z,64.32
2019-03-09T17:31:41.541Z,63.83
2019-03-09T17:34:29.368Z,63.18
2019-03-09T17:37:16.793Z,64.63
2019-03-09T17:40:05.763Z,65.58
2019-03-09T17:42:53.486Z,66.10
2019-03-09T17:45:41.217Z,68.05
2019-03-09T17:48:29.158Z,68.68
2019-03-09T17:51:17.136Z,68.59
2019-03-09T17:54:04.920Z,68.37
2019-03-09T17:56:52.447Z,65.22
2019-03-09T17:59:39.667Z,65.69
2019-03-09T18:02:27.194Z,65.46
2019-03-09T18:05:14.646Z,65.91
2019-03-09T18:08:02.251Z,64.92
2019-03-09T18:10:56.194Z,65.47
2019-03-09T18:13:43.655Z,64.04
2019-03-09T18:16:31.401Z,63.89
2019-03-09T18:19:18.909Z,63.49
2019-03-09T18:22:07.254Z,62.52
2019-03-09T18:24:54.681Z,61.87
2019-03-09T18:27:42.822Z,61.29
2019-03-09T18:30:30.370Z,60.98
2019-03-09T18:33:17.574Z,61.10
2019-03-09T18:36:05.612Z,60.26
2019-03-09T18:38:53.440Z,61.12
2019-03-09T18:41:41.171Z,61.06
2019-03-09T18:44:28.389Z,60.60
2019-03-09T18:47:16.237Z,59.89
2019-03-09T18:50:05.078Z,59.57
2019-03-09T18:52:52.300Z,59.64
2019-03-09T18:55:40.037Z,60.07
2019-03-09T18:58:27.557Z,59.97
2019-03-09T19:01:15.800Z,60.61
2019-03-09T19:04:03.237Z,60.58
2019-03-09T19:06:50.959Z,60.08
2019-03-09T19:09:38.280Z,59.23
2019-03-09T19:12:26.828Z,59.68
2019-03-09T19:15:18.407Z,59.53
2019-03-09T19:18:05.572Z,59.31
2019-03-09T19:20:52.892Z,59.48
2019-03-09T19:23:40.726Z,59.33
2019-03-09T19:26:27.736Z,59.29
2019-03-09T19:29:15.369Z,59.08
2019-03-09T19:32:03.097Z,58.32
2019-03-09T19:34:51.033Z,58.70
2019-03-09T19:37:38.665Z,58.28
2019-03-09T19:40:26.192Z,58.38
2019-03-09T19:43:13.614Z,58.74
2019-03-09T19:46:01.242Z,58.75
2019-03-09T19:48:48.569Z,58.66
2019-03-09T19:51:36.705Z,58.23
2019-03-09T19:54:24.132Z,59.06
2019-03-09T19:57:11.247Z,58.99
2019-03-09T19:59:59.083Z,58.27
2019-03-09T20:02:46.709Z,58.25
2019-03-09T20:05:34.749Z,57.56
2019-03-09T20:08:22.389Z,58.23
2019-03-09T20:11:09.905Z,57.87
2019-03-09T20:13:57.637Z,57.47
2019-03-09T20:16:44.961Z,57.36
2019-03-09T20:19:32.610Z,57.64
2019-03-09T20:22:20.117Z,57.16
2019-03-09T20:25:09.469Z,57.09
2019-03-09T20:27:56.704Z,57.22
2019-03-09T20:30:44.333Z,57.04
2019-03-09T20:33:32.064Z,56.99
2019-03-09T20:36:19.998Z,56.99
2019-03-09T20:39:07.428Z,56.20
2019-03-09T20:41:54.746Z,56.71
2019-03-09T20:44:42.377Z,56.61
2019-03-09T20:47:29.903Z,56.44
2019-03-09T20:50:18.970Z,56.11
2019-03-09T20:53:06.694Z,55.96
2019-03-09T20:55:54.325Z,56.02
2019-03-09T20:58:42.159Z,56.03
2019-03-09T21:01:29.686Z,55.65
2019-03-09T21:04:17.517Z,55.46
2019-03-09T21:07:05.249Z,55.49
2019-03-09T21:09:52.905Z,55.66
2019-03-09T21:12:54.437Z,55.61
2019-03-09T21:15:41.971Z,55.35
2019-03-09T21:18:29.385Z,55.60
2019-03-09T21:21:16.810Z,55.40
2019-03-09T21:24:04.541Z,55.74
2019-03-09T21:26:52.174Z,56.17
2019-03-09T21:29:39.595Z,55.83
2019-03-09T21:32:27.324Z,55.41
2019-03-09T21:35:14.758Z,55.60
2019-03-09T21:38:02.292Z,55.58
2019-03-09T21:40:49.904Z,55.84
2019-03-09T21:43:37.333Z,56.32
2019-03-09T21:46:25.060Z,56.47
2019-03-09T21:49:12.201Z,56.40
2019-03-09T21:51:59.910Z,55.93
2019-03-09T21:54:47.650Z,55.94
2019-03-09T21:57:35.372Z,56.20
2019-03-09T22:00:23.976Z,56.49
2019-03-09T22:03:11.691Z,56.46
2019-03-09T22:06:05.957Z,56.26
2019-03-09T22:08:49.677Z,55.80
2019-03-09T22:11:37.103Z,56.21
2019-03-09T22:14:24.732Z,55.78
2019-03-09T22:17:12.258Z,56.06
2019-03-09T22:19:59.818Z,56.95
2019-03-09T22:22:47.735Z,57.18
2019-03-09T22:25:36.278Z,57.60
2019-03-09T22:28:23.386Z,58.84
2019-03-09T22:31:10.710Z,59.28
2019-03-09T22:33:58.236Z,58.42
2019-03-09T22:36:45.870Z,58.86
2019-03-09T22:39:33.288Z,58.63
2019-03-09T22:42:20.929Z,58.91
2019-03-09T22:45:10.868Z,58.39
2019-03-09T22:47:58.861Z,58.84
2019-03-09T22:50:46.374Z,58.49
2019-03-09T22:53:34.406Z,58.65
2019-03-09T22:56:21.624Z,58.23
2019-03-09T22:59:09.044Z,57.86
2019-03-09T23:01:56.843Z,59.28
2019-03-09T23:04:44.202Z,59.06
2019-03-09T23:07:31.215Z,58.36
2019-03-09T23:10:23.350Z,57.93
2019-03-09T23:13:10.606Z,57.40
2019-03-09T23:15:57.687Z,57.78
2019-03-09T23:18:45.209Z,58.35
2019-03-09T23:21:32.232Z,58.44
2019-03-09T23:24:20.060Z,58.20
2019-03-09T23:27:07.079Z,57.90
2019-03-09T23:29:54.499Z,58.11
2019-03-09T23:32:44.490Z,59.24
2019-03-09T23:35:31.926Z,59.31
2019-03-09T23:38:20.667Z,60.07
2019-03-09T23:41:08.496Z,60.59
2019-03-09T23:43:55.717Z,60.34
2019-03-09T23:46:43.552Z,59.72
2019-03-09T23:49:31.281Z,59.98
2019-03-09T23:52:18.705Z,60.10
2019-03-09T23:55:07.736Z,61.56
2019-03-09T23:57:55.195Z,61.45
